Terminal Aerodrome Forecast
Issued by NWS Cleveland, OH

Home | Current Version | Previous Version | Graphics & Text | Print | Product List | Glossary On
Versions: 1 2 3 4 5 6 7 8 9 10 11 12 13 14 15 16 17 18 19 20 21 22 23 24 25 26
215
FTUS41 KCLE 262324
TAFCLE
TAF
KCLE 262324Z 2700/2806 30006KT P6SM SCT045 BKN120
     FM270600 14006KT 6SM -SHRA BR OVC050
     FM270900 12006KT 5SM BR OVC025
     FM271100 08006KT 4SM BR OVC012
     FM271400 04008KT P6SM BKN025
     FM271800 01006KT P6SM BKN050
     FM272100 01006KT P6SM SCT050 BKN120
     FM280500 12003KT P6SM BKN250=

USA.gov is the U.S. government's official web portal to all federal, state and local government web resources and services.